Time;durP1;ratioP1;P1;durP2;ratioP2;P2;SDS_P1;SDS_P2;PMS_P1;PMS_P2;Temp;Humidity;BMP_temperature;BMP_pressure;BME280_temperature;BME280_humidity;BME280_pressure;Samples;Min_cycle;Max_cycle;Signal;HPM_P1;HPM_P2
2021/04/27 00:01:32;;;;;;;;;24.00;22.00;;;;;12.65;29.08;98727.50;6280247;27;96804;-64
2021/04/27 00:04:34;;;;;;;;;23.50;22.00;;;;;12.66;29.26;98722.91;6281427;27;96726;-64
2021/04/27 00:07:37;;;;;;;;;26.00;24.00;;;;;12.59;29.31;98733.84;6281838;27;97256;-63
2021/04/27 00:10:39;;;;;;;;;30.00;27.00;;;;;12.57;29.31;98728.69;6274012;27;97234;-64
2021/04/27 00:13:42;;;;;;;;;29.50;26.00;;;;;12.37;29.50;98700.38;6287561;27;97437;-64
2021/04/27 00:16:45;;;;;;;;;24.00;23.00;;;;;12.58;30.18;98724.91;6280187;27;97370;-64
2021/04/27 00:19:48;;;;;;;;;28.00;25.00;;;;;12.54;30.13;98722.94;6283296;27;96427;-64
2021/04/27 00:22:51;;;;;;;;;25.00;23.00;;;;;12.50;30.37;98716.34;6280049;27;97297;-63
2021/04/27 00:25:53;;;;;;;;;25.00;22.25;;;;;12.38;30.35;98705.56;6276649;27;97390;-64
2021/04/27 00:28:55;;;;;;;;;26.20;24.80;;;;;12.42;30.58;98716.72;6275044;27;96760;-63
2021/04/27 00:31:59;;;;;;;;;24.75;22.75;;;;;12.35;30.81;98706.03;6289039;27;96204;-64
2021/04/27 00:35:02;;;;;;;;;30.00;26.00;;;;;12.32;30.76;98711.06;6289883;27;97166;-64
2021/04/27 00:38:05;;;;;;;;;28.75;25.00;;;;;12.24;30.91;98712.28;6283666;27;96730;-63
2021/04/27 00:41:09;;;;;;;;;25.80;23.80;;;;;12.26;31.04;98714.75;6279133;27;96682;-63
2021/04/27 00:44:11;;;;;;;;;26.50;24.50;;;;;12.24;29.88;98714.16;6285088;27;97436;-63
2021/04/27 00:47:14;;;;;;;;;29.00;26.40;;;;;12.20;29.99;98715.69;6274058;27;96987;-64
2021/04/27 00:50:18;;;;;;;;;32.00;29.00;;;;;12.00;29.66;98683.63;6280019;27;98641;-63
2021/04/27 00:53:21;;;;;;;;;32.75;29.75;;;;;12.13;29.42;98700.41;6276689;27;97349;-63
2021/04/27 00:56:23;;;;;;;;;31.40;28.60;;;;;12.06;29.46;98704.31;6286411;27;96881;-63
2021/04/27 00:59:26;;;;;;;;;33.40;30.00;;;;;12.07;29.57;98698.63;6288782;27;98162;-64
2021/04/27 01:02:28;;;;;;;;;33.25;30.00;;;;;12.07;29.41;98693.25;6282425;27;96627;-64
2021/04/27 01:05:33;;;;;;;;;38.00;30.00;;;;;12.02;29.45;98690.41;6286588;27;97332;-64
2021/04/27 01:08:45;;;;;;;;;32.75;28.75;;;;;11.99;29.68;98696.31;6263545;27;96755;-64
2021/04/27 01:11:56;;;;;;;;;36.40;32.00;;;;;12.00;29.87;98695.25;6277625;27;96701;-64
2021/04/27 01:15:05;;;;;;;;;36.00;31.20;;;;;11.95;30.08;98697.00;6284075;27;97419;-64
2021/04/27 01:18:10;;;;;;;;;33.00;30.00;;;;;11.89;30.04;98687.13;6281899;27;97964;-64
2021/04/27 01:21:14;;;;;;;;;30.60;28.60;;;;;11.85;29.73;98688.66;6284835;27;96789;-63
2021/04/27 01:24:22;;;;;;;;;31.20;27.20;;;;;11.86;29.59;98687.63;6287453;27;97143;-63
2021/04/27 01:27:26;;;;;;;;;28.80;26.00;;;;;11.80;29.38;98678.56;6268277;27;96494;-62
2021/04/27 01:30:29;;;;;;;;;29.40;27.40;;;;;11.77;29.38;98684.44;6279250;27;96581;-63
2021/04/27 01:33:32;;;;;;;;;26.00;24.40;;;;;11.73;29.32;98681.38;6278080;27;96834;-63
2021/04/27 01:36:36;;;;;;;;;29.00;26.00;;;;;11.69;29.08;98684.75;6284069;27;97391;-63
2021/04/27 01:39:38;;;;;;;;;25.25;23.25;;;;;11.47;28.84;98654.81;6280369;27;96532;-63
2021/04/27 01:42:42;;;;;;;;;23.00;21.00;;;;;11.64;28.57;98679.22;6279272;27;97204;-63
2021/04/27 01:45:46;;;;;;;;;24.25;22.00;;;;;11.59;28.72;98679.94;6285709;27;97489;-63
2021/04/27 01:48:49;;;;;;;;;29.00;24.00;;;;;11.47;28.50;98672.88;6274410;27;96991;-63
2021/04/27 01:51:57;;;;;;;;;24.00;22.60;;;;;11.45;28.60;98681.19;6283455;27;97480;-63
2021/04/27 01:55:26;;;;;;;;;24.00;23.00;;;;;11.37;28.84;98678.84;6285163;27;96696;-62
2021/04/27 01:58:29;;;;;;;;;26.00;22.60;;;;;11.24;29.01;98679.84;6286884;27;96555;-62
2021/04/27 02:01:32;;;;;;;;;26.50;23.00;;;;;11.14;29.02;98687.69;6286466;27;96969;-63
2021/04/27 02:04:34;;;;;;;;;24.50;21.50;;;;;11.09;28.82;98690.25;6285723;27;97421;-63
2021/04/27 02:07:55;;;;;;;;;28.00;26.25;;;;;10.98;29.36;98687.53;6285381;27;97414;-63
2021/04/27 02:11:01;;;;;;;;;24.00;21.60;;;;;10.91;29.48;98687.63;6269235;27;97013;-62
2021/04/27 02:14:06;;;;;;;;;25.00;23.25;;;;;10.83;29.88;98683.38;6285500;27;96595;-64
2021/04/27 02:17:14;;;;;;;;;25.00;21.00;;;;;10.75;30.71;98680.19;6278188;27;97383;-64
2021/04/27 02:20:23;;;;;;;;;27.20;23.00;;;;;10.63;31.21;98687.38;6299664;27;96823;-64
2021/04/27 02:23:45;;;;;;;;;27.40;23.40;;;;;10.51;30.75;98695.38;6273505;27;97687;-63
2021/04/27 02:26:52;;;;;;;;;26.60;21.00;;;;;10.44;31.22;98694.66;6270007;27;97464;-63
2021/04/27 02:30:05;;;;;;;;;24.00;21.00;;;;;10.30;31.73;98691.31;6283035;27;97404;-62
2021/04/27 02:33:09;;;;;;;;;24.25;21.50;;;;;10.19;31.77;98689.34;6287202;27;96992;-64
2021/04/27 02:36:12;;;;;;;;;24.80;23.00;;;;;9.98;31.88;98673.56;6278585;27;97056;-63
2021/04/27 02:39:32;;;;;;;;;25.00;22.00;;;;;9.94;32.33;98689.38;6265367;27;96825;-64
2021/04/27 02:42:35;;;;;;;;;27.40;25.20;;;;;9.84;32.38;98689.03;6275479;27;96521;-63
2021/04/27 02:45:54;;;;;;;;;25.40;24.40;;;;;9.74;32.52;98688.72;6277037;27;96464;-63
2021/04/27 02:48:56;;;;;;;;;27.00;24.60;;;;;9.68;32.88;98694.97;6276040;27;97259;-63
2021/04/27 02:52:02;;;;;;;;;28.00;24.00;;;;;9.54;33.55;98694.28;6277197;27;97565;-64
2021/04/27 02:55:13;;;;;;;;;28.60;24.00;;;;;9.38;33.86;98689.44;6269042;27;96565;-63
2021/04/27 02:58:18;;;;;;;;;25.00;24.00;;;;;9.35;33.57;98687.19;6280280;27;97404;-63
2021/04/27 03:01:25;;;;;;;;;24.00;22.00;;;;;9.11;33.79;98669.97;6270477;27;96531;-63
2021/04/27 03:04:27;;;;;;;;;26.80;24.00;;;;;9.22;33.90;98687.28;6272212;27;97456;-63
2021/04/27 03:07:54;;;;;;;;;29.40;27.40;;;;;9.15;34.49;98683.81;6281712;27;97524;-62
2021/04/27 03:10:56;;;;;;;;;25.00;24.00;;;;;9.06;34.19;98682.44;6280685;27;97099;-62
2021/04/27 03:13:59;;;;;;;;;26.50;24.00;;;;;9.08;34.50;98693.81;6269131;27;97324;-62
2021/04/27 03:17:02;;;;;;;;;30.60;26.40;;;;;8.97;34.71;98687.25;6285316;27;96459;-62
2021/04/27 03:20:08;;;;;;;;;28.60;25.60;;;;;8.85;34.67;98688.13;6282591;27;96654;-63
2021/04/27 03:23:20;;;;;;;;;27.75;22.75;;;;;8.85;35.12;98688.97;6274484;27;96641;-62
2021/04/27 03:26:24;;;;;;;;;26.00;23.00;;;;;8.81;35.17;98686.91;6268399;27;96996;-63
2021/04/27 03:29:44;;;;;;;;;22.75;22.00;;;;;8.78;35.24;98696.25;6281105;27;97367;-63
2021/04/27 03:32:48;;;;;;;;;29.00;24.20;;;;;8.76;35.42;98686.75;6283093;27;96677;-63
2021/04/27 03:35:50;;;;;;;;;26.80;24.00;;;;;8.68;35.08;98687.81;6284908;27;97513;-62
2021/04/27 03:38:53;;;;;;;;;29.40;24.00;;;;;8.66;35.12;98688.03;6277082;27;96517;-63
2021/04/27 03:41:56;;;;;;;;;26.20;22.80;;;;;8.65;34.80;98690.91;6279997;27;97145;-62
2021/04/27 03:44:58;;;;;;;;;24.20;22.20;;;;;8.68;34.91;98687.81;6274115;27;96956;-63
2021/04/27 03:48:03;;;;;;;;;24.60;22.00;;;;;8.70;35.10;98691.94;6286222;27;97426;-63
2021/04/27 03:51:05;;;;;;;;;25.00;24.00;;;;;8.73;34.66;98701.44;6276287;27;96584;-62
2021/04/27 03:54:17;;;;;;;;;23.60;22.00;;;;;8.72;34.61;98694.41;6278121;27;96694;-62
2021/04/27 03:57:19;;;;;;;;;25.00;23.00;;;;;8.69;34.74;98687.63;6282418;27;96512;-62
2021/04/27 04:00:35;;;;;;;;;23.00;21.00;;;;;8.75;34.82;98699.34;6261826;27;97369;-62
2021/04/27 04:03:47;;;;;;;;;26.00;24.00;;;;;8.77;34.69;98702.66;6274765;27;97705;-63
2021/04/27 04:06:50;;;;;;;;;28.00;25.40;;;;;8.79;34.64;98705.16;6280118;27;97388;-63
2021/04/27 04:10:14;;;;;;;;;25.00;22.00;;;;;8.91;34.84;98700.72;6271318;27;98082;-62
2021/04/27 04:13:16;;;;;;;;;29.80;25.00;;;;;8.99;34.30;98703.97;6269940;27;96725;-63
2021/04/27 04:16:18;;;;;;;;;26.20;25.20;;;;;9.12;33.83;98709.28;6286778;27;97534;-63
2021/04/27 04:19:23;;;;;;;;;29.00;26.00;;;;;9.20;33.75;98705.50;6279543;27;96440;-64
2021/04/27 04:22:34;;;;;;;;;27.50;25.50;;;;;9.32;34.07;98719.91;6270816;27;97464;-63
2021/04/27 04:25:41;;;;;;;;;27.00;24.60;;;;;9.47;33.78;98719.59;6267302;27;97495;-63
2021/04/27 04:28:44;;;;;;;;;30.00;26.60;;;;;9.58;33.23;98725.09;6280177;27;97335;-63
2021/04/27 04:31:46;;;;;;;;;26.00;24.40;;;;;9.68;32.98;98732.66;6293196;27;97321;-63
2021/04/27 04:35:09;;;;;;;;;28.40;27.00;;;;;9.82;33.20;98725.31;6286644;27;97329;-64
2021/04/27 04:38:30;;;;;;;;;26.00;22.60;;;;;10.00;33.16;98730.75;6288326;27;96998;-64
2021/04/27 04:41:50;;;;;;;;;25.60;23.40;;;;;10.18;32.86;98740.75;6286360;27;96497;-63
2021/04/27 04:45:14;;;;;;;;;22.60;20.00;;;;;10.33;32.14;98742.03;6286305;27;96517;-64
2021/04/27 04:48:36;;;;;;;;;20.75;18.00;;;;;10.51;31.69;98745.78;6259134;27;97525;-62
2021/04/27 04:51:55;;;;;;;;;18.00;16.00;;;;;10.69;31.57;98748.50;6282313;27;96664;-62
2021/04/27 04:55:13;;;;;;;;;21.00;20.00;;;;;10.83;31.53;98747.28;6284254;27;97470;-63
2021/04/27 04:58:35;;;;;;;;;21.40;19.00;;;;;10.96;31.41;98746.25;6270349;27;97913;-62
2021/04/27 05:01:40;;;;;;;;;20.50;20.00;;;;;11.10;30.98;98736.94;6272187;27;97336;-63
2021/04/27 05:05:01;;;;;;;;;22.00;21.00;;;;;11.27;30.71;98740.66;6286146;27;97421;-64
2021/04/27 05:08:35;;;;;;;;;22.00;20.00;;;;;11.42;30.58;98748.34;6232820;27;97101;-63
2021/04/27 05:12:04;;;;;;;;;21.00;20.00;;;;;11.52;30.55;98743.19;6287853;27;97127;-64
2021/04/27 05:15:08;;;;;;;;;21.60;19.60;;;;;11.55;30.81;98751.66;6288425;27;98043;-64
2021/04/27 05:18:10;;;;;;;;;23.00;21.80;;;;;11.64;30.24;98749.44;6286589;27;97966;-63
2021/04/27 05:21:13;;;;;;;;;24.00;20.00;;;;;11.68;29.76;98756.00;6300369;27;96634;-63
2021/04/27 05:24:16;;;;;;;;;23.80;22.00;;;;;11.70;29.90;98740.41;6285564;27;97419;-63
2021/04/27 05:27:19;;;;;;;;;25.80;23.80;;;;;11.82;30.09;98752.09;6276323;27;97340;-63
2021/04/27 05:30:22;;;;;;;;;26.00;23.75;;;;;11.70;30.13;98751.22;6287356;27;96601;-63
2021/04/27 05:33:24;;;;;;;;;25.20;23.20;;;;;11.80;30.22;98756.06;6283937;27;98112;-63
2021/04/27 05:36:27;;;;;;;;;25.00;23.00;;;;;11.89;29.79;98754.69;6268798;27;96815;-63
2021/04/27 05:39:31;;;;;;;;;28.00;25.40;;;;;11.86;29.67;98736.25;6277395;27;97860;-64
2021/04/27 05:42:34;;;;;;;;;24.00;23.80;;;;;12.19;29.57;98762.69;6286495;27;97454;-63
2021/04/27 05:45:37;;;;;;;;;29.40;27.40;;;;;12.29;29.60;98761.03;6286558;27;96597;-63
2021/04/27 05:48:39;;;;;;;;;25.25;22.00;;;;;12.40;29.25;98757.50;6287827;27;96761;-63
2021/04/27 05:51:41;;;;;;;;;23.60;19.60;;;;;12.54;28.33;98763.50;6288214;27;96652;-64
2021/04/27 05:54:44;;;;;;;;;20.00;19.00;;;;;12.63;28.70;98753.13;6288396;27;97107;-64
2021/04/27 05:57:46;;;;;;;;;22.60;20.00;;;;;12.80;28.62;98763.00;6286807;27;97221;-64
2021/04/27 06:00:48;;;;;;;;;23.00;20.40;;;;;12.80;28.19;98763.00;6287793;27;97362;-63
2021/04/27 06:04:07;;;;;;;;;19.75;18.75;;;;;12.93;28.10;98753.75;6276643;27;97450;-63
2021/04/27 06:07:11;;;;;;;;;23.40;22.00;;;;;13.14;28.14;98771.25;6287007;27;96481;-63
2021/04/27 06:10:14;;;;;;;;;21.00;20.00;;;;;13.27;27.71;98769.09;6288099;27;97479;-63
2021/04/27 06:13:16;;;;;;;;;22.80;19.40;;;;;13.35;27.44;98767.88;6287991;27;96623;-63
2021/04/27 06:16:18;;;;;;;;;23.80;20.20;;;;;13.43;27.14;98770.19;6290062;27;96610;-64
2021/04/27 06:19:25;;;;;;;;;24.00;20.00;;;;;13.39;27.25;98775.25;6294588;27;97131;-63
2021/04/27 06:22:27;;;;;;;;;22.40;21.00;;;;;13.58;27.15;98770.47;6287536;27;98079;-62
2021/04/27 06:25:30;;;;;;;;;21.25;19.25;;;;;13.67;26.97;98771.72;6283731;27;97550;-63
2021/04/27 06:28:32;;;;;;;;;25.00;23.20;;;;;13.67;27.72;98749.22;6287816;27;96554;-63
2021/04/27 06:31:35;;;;;;;;;25.40;22.80;;;;;14.05;27.43;98781.00;6287781;27;97095;-63
2021/04/27 06:34:37;;;;;;;;;21.75;20.00;;;;;14.00;25.96;98781.75;6277339;27;97497;-63
2021/04/27 06:37:40;;;;;;;;;23.40;22.00;;;;;14.08;26.35;98777.81;6281642;27;96855;-63
2021/04/27 06:40:43;;;;;;;;;21.00;20.00;;;;;14.07;26.04;98804.13;6287772;27;96882;-63
2021/04/27 06:43:45;;;;;;;;;22.60;22.60;;;;;14.02;26.46;98782.34;6287444;27;98150;-63
2021/04/27 06:46:48;;;;;;;;;23.00;22.00;;;;;13.77;26.22;98769.19;6275988;27;97573;-63
2021/04/27 06:49:52;;;;;;;;;24.00;22.00;;;;;13.97;26.96;98784.97;6279529;27;97407;-63
2021/04/27 06:52:54;;;;;;;;;25.00;23.00;;;;;14.23;27.04;98783.47;6283903;27;96720;-63
2021/04/27 06:55:58;;;;;;;;;23.40;22.00;;;;;14.28;25.70;98789.78;6269025;27;97448;-63
2021/04/27 06:59:01;;;;;;;;;22.60;20.80;;;;;14.46;26.05;98794.19;6286676;27;97059;-64
2021/04/27 07:02:05;;;;;;;;;25.67;24.00;;;;;14.73;25.81;98794.28;6286517;27;97071;-63
2021/04/27 07:05:12;;;;;;;;;22.80;21.40;;;;;15.01;25.61;98796.81;6282556;27;97503;-63
2021/04/27 07:08:14;;;;;;;;;29.20;22.80;;;;;15.35;25.39;98791.22;6285185;27;97228;-63
2021/04/27 07:11:17;;;;;;;;;23.00;21.00;;;;;15.69;25.07;98789.16;6285953;27;96567;-63
2021/04/27 07:14:20;;;;;;;;;24.60;22.40;;;;;16.01;24.73;98790.84;6286943;27;97463;-63
2021/04/27 07:17:24;;;;;;;;;22.60;21.00;;;;;16.18;24.86;98785.25;6286927;27;96510;-64
2021/04/27 07:20:26;;;;;;;;;20.00;19.00;;;;;16.21;23.58;98795.63;6286707;27;97735;-63
2021/04/27 07:23:31;;;;;;;;;21.40;20.00;;;;;16.24;23.05;98788.84;6287098;27;96360;-63
2021/04/27 07:26:35;;;;;;;;;22.00;19.00;;;;;15.64;23.25;98786.44;6270875;27;97176;-63
2021/04/27 07:29:38;;;;;;;;;23.00;19.60;;;;;15.87;24.28;98795.09;6285389;27;97998;-63
2021/04/27 07:32:42;;;;;;;;;21.00;20.40;;;;;15.87;24.60;98783.38;6279587;27;97116;-63
2021/04/27 07:35:44;;;;;;;;;20.00;19.00;;;;;16.20;23.65;98798.59;6278432;27;98438;-64
2021/04/27 07:38:47;;;;;;;;;20.60;19.80;;;;;16.54;23.74;98794.50;6280148;27;96546;-64
2021/04/27 07:41:50;;;;;;;;;21.00;20.00;;;;;16.70;23.52;98798.19;6279467;27;97326;-64
2021/04/27 07:44:52;;;;;;;;;19.00;17.40;;;;;16.82;22.82;98798.78;6286614;27;96721;-65
2021/04/27 07:47:55;;;;;;;;;17.20;15.80;;;;;16.96;23.09;98794.47;6285289;27;97016;-63
2021/04/27 07:50:58;;;;;;;;;20.80;18.20;;;;;17.08;22.46;98797.00;6288650;27;97502;-63
2021/04/27 07:54:00;;;;;;;;;19.00;18.00;;;;;16.95;22.67;98789.31;6289309;27;96883;-63
2021/04/27 07:57:03;;;;;;;;;20.00;19.00;;;;;17.14;22.94;98787.78;6290758;27;97593;-64
2021/04/27 08:00:09;;;;;;;;;20.00;18.25;;;;;17.33;22.87;98797.09;6290276;27;97403;-64
2021/04/27 08:03:15;;;;;;;;;21.50;19.50;;;;;17.61;22.45;98793.13;6286911;27;96683;-64
2021/04/27 08:06:18;;;;;;;;;21.20;20.00;;;;;17.92;22.94;98789.34;6290487;27;96071;-64
2021/04/27 08:09:20;;;;;;;;;18.00;15.80;;;;;18.15;21.10;98793.44;6290626;27;97522;-64
2021/04/27 08:12:23;;;;;;;;;18.20;14.20;;;;;17.85;19.63;98793.41;6290386;27;97481;-64
2021/04/27 08:15:28;;;;;;;;;13.00;11.00;;;;;17.84;19.88;98795.31;6290465;27;97455;-64
2021/04/27 08:18:31;;;;;;;;;14.20;13.20;;;;;17.78;20.21;98798.34;6261831;27;97325;-64
2021/04/27 08:21:34;;;;;;;;;15.20;13.60;;;;;18.09;21.21;98800.00;6285543;27;98247;-64
2021/04/27 08:24:37;;;;;;;;;14.20;13.20;;;;;18.29;20.72;98790.97;6290906;27;96910;-64
2021/04/27 08:27:47;;;;;;;;;13.40;13.00;;;;;18.51;18.78;98791.53;6285255;27;96615;-64
2021/04/27 08:30:50;;;;;;;;;13.00;12.00;;;;;18.48;19.45;98789.31;6290186;27;97193;-64
2021/04/27 08:33:52;;;;;;;;;13.00;11.80;;;;;18.45;19.26;98757.13;6290263;27;97730;-64
2021/04/27 08:36:56;;;;;;;;;16.50;14.50;;;;;19.00;19.70;98798.00;6290409;27;96602;-64
2021/04/27 08:39:59;;;;;;;;;14.00;13.00;;;;;19.13;18.72;98799.28;6289692;27;96547;-64
2021/04/27 08:43:03;;;;;;;;;12.00;11.00;;;;;19.18;17.50;98798.47;6289989;27;97332;-64
2021/04/27 08:46:05;;;;;;;;;14.00;11.00;;;;;19.55;19.31;98804.31;6289915;27;96596;-64
2021/04/27 08:49:08;;;;;;;;;11.00;11.00;;;;;19.71;17.38;98792.19;6289841;27;97157;-64
2021/04/27 08:52:10;;;;;;;;;12.40;12.00;;;;;20.01;18.65;98768.44;6284546;27;98402;-64
2021/04/27 08:55:15;;;;;;;;;13.80;12.00;;;;;20.41;17.86;98789.22;6289748;27;97048;-64
2021/04/27 08:58:19;;;;;;;;;12.00;10.40;;;;;20.60;18.24;98785.47;6289716;27;97570;-63
2021/04/27 09:01:21;;;;;;;;;12.00;11.00;;;;;20.76;16.79;98783.41;6289510;27;96712;-62
2021/04/27 09:04:44;;;;;;;;;10.00;10.00;;;;;20.16;16.76;98776.53;6289466;27;96543;-63
2021/04/27 09:07:47;;;;;;;;;9.00;8.00;;;;;20.17;17.21;98779.00;6286079;27;97459;-64
2021/04/27 09:10:49;;;;;;;;;12.00;11.00;;;;;20.35;18.07;98779.41;6270671;27;97879;-64
2021/04/27 09:14:08;;;;;;;;;11.40;10.20;;;;;20.38;16.34;98778.84;6288137;27;98103;-64
2021/04/27 09:17:12;;;;;;;;;11.00;9.00;;;;;20.59;17.86;98780.28;6285752;27;96991;-64
2021/04/27 09:20:15;;;;;;;;;11.00;9.50;;;;;20.93;17.13;98775.53;6285890;27;98078;-64
2021/04/27 09:23:17;;;;;;;;;9.20;8.20;;;;;21.25;17.52;98774.09;6289527;27;96567;-62
2021/04/27 09:26:23;;;;;;;;;10.50;9.50;;;;;21.56;16.10;98770.63;6289545;27;96501;-64
2021/04/27 09:29:32;;;;;;;;;8.80;8.00;;;;;21.87;16.77;98772.91;6289230;27;96916;-63
2021/04/27 09:32:35;;;;;;;;;12.50;11.00;;;;;22.11;16.33;98773.66;6286389;27;96544;-64
2021/04/27 09:35:40;;;;;;;;;12.00;11.00;;;;;22.10;17.04;98776.69;6280200;27;96611;-63
2021/04/27 09:38:42;;;;;;;;;13.00;12.00;;;;;22.22;15.19;98766.88;6289453;27;97150;-62
2021/04/27 09:41:56;;;;;;;;;10.00;9.00;;;;;22.34;16.19;98747.16;6289264;27;97109;-62
2021/04/27 09:45:00;;;;;;;;;9.00;8.80;;;;;22.68;15.62;98772.38;6285686;27;96639;-63
2021/04/27 09:48:02;;;;;;;;;10.00;8.80;;;;;22.73;13.75;98760.50;6288705;27;97123;-63
2021/04/27 09:51:19;;;;;;;;;9.00;8.00;;;;;22.84;14.32;98768.25;6284579;27;96422;-63
2021/04/27 09:55:00;;;;;;;;;8.00;8.00;;;;;23.03;14.80;98750.84;6288226;27;96981;-62
2021/04/27 09:58:03;;;;;;;;;13.00;12.00;;;;;22.59;14.49;98768.69;6285234;27;97510;-63
2021/04/27 10:01:07;;;;;;;;;12.00;12.00;;;;;22.38;15.62;98757.25;6288521;27;96976;-63
2021/04/27 10:04:09;;;;;;;;;10.00;10.00;;;;;21.67;15.33;98757.56;6283606;27;97472;-63
2021/04/27 10:07:11;;;;;;;;;11.60;11.00;;;;;21.69;16.49;98751.78;6287607;27;96556;-64
2021/04/27 10:10:16;;;;;;;;;9.00;8.00;;;;;21.85;15.97;98756.75;6288405;27;97396;-64
2021/04/27 10:13:25;;;;;;;;;10.00;10.00;;;;;22.18;14.92;98738.41;6283715;27;97070;-63
2021/04/27 10:16:28;;;;;;;;;13.00;12.00;;;;;22.25;14.97;98741.56;6286886;27;97038;-63
2021/04/27 10:19:33;;;;;;;;;12.00;11.00;;;;;22.39;14.70;98736.91;6285052;27;96913;-64
2021/04/27 10:22:37;;;;;;;;;11.00;10.00;;;;;22.70;15.84;98737.19;6288042;27;97517;-64
2021/04/27 10:25:39;;;;;;;;;14.00;11.00;;;;;22.95;14.26;98729.56;6288394;27;97118;-63
2021/04/27 10:29:03;;;;;;;;;12.00;12.00;;;;;22.95;14.66;98726.81;6286768;27;97364;-64
2021/04/27 10:32:21;;;;;;;;;11.00;10.75;;;;;23.02;14.75;98717.03;6268864;27;99792;-63
2021/04/27 10:35:23;;;;;;;;;11.00;10.00;;;;;23.17;15.46;98719.44;6267135;27;96806;-64
2021/04/27 10:38:50;;;;;;;;;10.50;10.00;;;;;23.14;13.98;98716.50;6286400;27;96612;-64
2021/04/27 10:41:56;;;;;;;;;11.20;11.20;;;;;23.16;14.45;98715.09;6284006;27;97341;-63
2021/04/27 10:45:01;;;;;;;;;16.00;15.00;;;;;22.96;14.90;98711.94;6284249;27;97207;-64
2021/04/27 10:48:05;;;;;;;;;14.40;14.00;;;;;22.51;15.79;98711.72;6287400;27;96490;-63
2021/04/27 10:51:35;;;;;;;;;14.40;13.00;;;;;21.89;14.85;98702.88;6285388;27;97318;-64
2021/04/27 10:54:38;;;;;;;;;15.60;14.60;;;;;21.99;15.64;98701.94;6267944;27;96599;-64
2021/04/27 10:58:02;;;;;;;;;15.20;13.00;;;;;22.10;15.60;98699.81;6271217;27;97006;-63
2021/04/27 11:01:28;;;;;;;;;12.00;11.00;;;;;22.23;14.84;98694.38;6272088;27;96985;-63
2021/04/27 11:04:34;;;;;;;;;16.00;15.00;;;;;22.41;15.64;98688.00;6272008;27;97172;-63
2021/04/27 11:07:38;;;;;;;;;16.00;14.00;;;;;22.53;15.71;98686.69;6270479;27;97106;-63
2021/04/27 11:10:43;;;;;;;;;13.00;13.00;;;;;22.80;15.68;98686.72;6279374;27;97226;-64
2021/04/27 11:13:45;;;;;;;;;12.80;12.80;;;;;22.90;15.38;98675.50;6274793;27;96655;-64
2021/04/27 11:16:53;;;;;;;;;11.60;11.60;;;;;22.35;14.70;98694.69;6274845;27;97516;-64
2021/04/27 11:19:56;;;;;;;;;13.33;12.00;;;;;21.66;15.14;98678.28;6272359;27;97390;-64
2021/04/27 11:22:58;;;;;;;;;13.00;12.00;;;;;21.09;15.22;98680.22;6274260;27;97356;-64
2021/04/27 11:26:00;;;;;;;;;11.50;11.00;;;;;20.79;15.72;98667.72;6282086;27;97683;-64
2021/04/27 11:29:06;;;;;;;;;12.00;11.80;;;;;20.23;14.68;98673.81;6277202;27;97406;-64
2021/04/27 11:32:12;;;;;;;;;12.00;11.60;;;;;20.36;15.00;98660.59;6281812;27;97081;-64
2021/04/27 11:35:17;;;;;;;;;11.50;11.50;;;;;20.57;16.79;98665.56;6274706;27;97445;-64
2021/04/27 11:38:20;;;;;;;;;15.00;13.00;;;;;20.79;16.53;98651.28;6273030;27;97098;-64
2021/04/27 11:41:23;;;;;;;;;15.40;15.00;;;;;21.10;15.83;98652.53;6276835;27;97503;-64
2021/04/27 11:44:31;;;;;;;;;12.00;12.00;;;;;21.29;15.90;98649.00;6277082;27;96508;-64
2021/04/27 11:47:36;;;;;;;;;14.00;12.00;;;;;21.50;16.84;98653.06;6272408;27;96532;-63
2021/04/27 11:50:40;;;;;;;;;16.00;15.00;;;;;21.20;15.86;98654.34;6277352;27;97407;-63
2021/04/27 11:53:43;;;;;;;;;15.00;13.00;;;;;21.03;16.73;98649.31;6280688;27;96569;-63
2021/04/27 11:56:47;;;;;;;;;13.40;12.00;;;;;21.45;17.15;98640.22;6274798;27;97096;-63
2021/04/27 11:59:59;;;;;;;;;13.00;12.20;;;;;21.86;17.29;98645.03;6280177;27;97810;-63
2021/04/27 12:03:14;;;;;;;;;11.00;11.00;;;;;21.47;15.18;98631.69;6278132;27;97555;-66
2021/04/27 12:06:18;;;;;;;;;13.00;12.00;;;;;21.23;15.56;98630.97;6275452;27;97359;-64
2021/04/27 12:09:24;;;;;;;;;13.00;12.20;;;;;21.09;17.22;98630.88;6274741;27;97449;-64
2021/04/27 12:12:28;;;;;;;;;11.00;11.00;;;;;21.04;16.29;98639.16;6275883;27;98326;-64
2021/04/27 12:15:30;;;;;;;;;13.20;12.00;;;;;21.19;16.69;98628.03;6277792;27;96814;-64
2021/04/27 12:18:32;;;;;;;;;13.00;11.00;;;;;21.49;17.04;98633.03;6282044;27;96630;-68
2021/04/27 12:21:47;;;;;;;;;12.00;11.00;;;;;21.78;16.84;98621.84;6282510;27;97129;-67
2021/04/27 12:24:50;;;;;;;;;13.00;12.40;;;;;22.15;16.03;98633.84;6264615;27;96706;-67
2021/04/27 12:28:00;;;;;;;;;15.40;15.00;;;;;22.22;16.88;98626.84;6279869;27;97339;-66
2021/04/27 12:31:04;;;;;;;;;14.00;13.00;;;;;22.59;16.50;98620.31;6275510;27;96556;-68
2021/04/27 12:34:08;;;;;;;;;14.00;13.40;;;;;22.83;15.70;98611.88;6278454;27;97543;-67
2021/04/27 12:37:15;;;;;;;;;12.40;11.80;;;;;22.92;15.44;98610.00;6281840;27;96965;-66
2021/04/27 12:40:20;;;;;;;;;12.00;12.00;;;;;23.03;16.58;98610.59;6275231;27;97323;-66
2021/04/27 12:43:32;;;;;;;;;12.00;11.40;;;;;23.24;15.35;98614.53;6279124;27;97503;-65
2021/04/27 12:46:47;;;;;;;;;12.75;11.75;;;;;23.06;14.60;98612.75;6275496;27;96606;-63
2021/04/27 12:50:01;;;;;;;;;11.00;10.00;;;;;23.01;16.33;98596.38;6279582;27;98622;-64
2021/04/27 12:53:04;;;;;;;;;10.00;9.00;;;;;23.27;15.79;98580.88;6273702;27;97130;-63
2021/04/27 12:56:09;;;;;;;;;12.00;10.50;;;;;23.31;14.88;98593.69;6278656;27;96820;-63
2021/04/27 12:59:12;;;;;;;;;12.50;12.00;;;;;23.13;15.24;98583.69;6277597;27;96921;-66
2021/04/27 13:02:16;;;;;;;;;10.40;10.00;;;;;23.18;16.46;98577.25;6279142;27;97337;-68
2021/04/27 13:05:24;;;;;;;;;11.00;10.20;;;;;23.10;15.28;98576.06;6276944;27;96796;-64
2021/04/27 13:08:29;;;;;;;;;11.00;10.60;;;;;22.97;15.58;98581.63;6274197;27;97462;-63
2021/04/27 13:11:31;;;;;;;;;12.60;12.00;;;;;22.78;15.63;98579.81;6285279;27;97460;-63
2021/04/27 13:14:36;;;;;;;;;11.60;11.60;;;;;22.56;15.93;98577.00;6289128;27;97605;-64
2021/04/27 13:17:41;;;;;;;;;11.50;11.00;;;;;22.67;15.93;98577.59;6289365;27;96519;-63
2021/04/27 13:20:44;;;;;;;;;12.00;11.00;;;;;22.83;16.21;98573.38;6288568;27;97431;-64
2021/04/27 13:23:47;;;;;;;;;14.00;12.40;;;;;22.92;16.20;98573.50;6287931;27;97179;-64
2021/04/27 13:26:59;;;;;;;;;16.50;13.00;;;;;23.08;15.54;98566.50;6274987;27;97540;-64
2021/04/27 13:30:14;;;;;;;;;13.40;12.40;;;;;22.92;15.62;98522.03;6283043;27;97529;-64
2021/04/27 13:33:18;;;;;;;;;13.75;12.75;;;;;22.99;14.69;98562.88;6285233;27;96470;-63
2021/04/27 13:36:20;;;;;;;;;12.00;12.00;;;;;22.64;15.42;98557.00;6287754;27;96622;-63
2021/04/27 13:39:23;;;;;;;;;12.60;11.00;;;;;22.30;15.52;98562.13;6287655;27;96620;-63
2021/04/27 13:42:25;;;;;;;;;13.25;12.25;;;;;22.03;15.75;98546.50;6286777;27;96679;-63
2021/04/27 13:45:30;;;;;;;;;13.80;13.00;;;;;21.73;15.53;98558.00;6282314;27;97390;-63
2021/04/27 13:48:33;;;;;;;;;11.00;11.00;;;;;21.63;17.05;98556.28;6274592;27;98533;-64
2021/04/27 13:51:35;;;;;;;;;14.33;12.67;;;;;21.70;16.34;98553.16;6275251;27;97427;-63
2021/04/27 13:54:38;;;;;;;;;13.50;12.00;;;;;21.29;16.65;98553.84;6277221;27;96690;-63
2021/04/27 13:57:42;;;;;;;;;13.00;12.00;;;;;21.26;16.87;98540.72;6275376;27;97534;-63
2021/04/27 14:00:44;;;;;;;;;12.20;11.20;;;;;21.55;17.52;98552.28;6276076;27;97485;-63
2021/04/27 14:03:47;;;;;;;;;13.00;12.00;;;;;21.56;16.92;98506.47;6278203;27;96727;-63
2021/04/27 14:06:49;;;;;;;;;12.40;12.40;;;;;21.30;16.81;98510.78;6275128;27;96691;-64
2021/04/27 14:09:52;;;;;;;;;14.00;13.00;;;;;21.58;16.20;98532.50;6275937;27;96651;-64
2021/04/27 14:12:56;;;;;;;;;12.60;12.00;;;;;21.17;15.84;98534.28;6290590;27;98093;-63
2021/04/27 14:15:59;;;;;;;;;12.00;11.00;;;;;20.86;16.25;98522.97;6275308;27;96513;-64
2021/04/27 14:19:01;;;;;;;;;12.80;10.80;;;;;21.07;17.01;98528.94;6275449;27;97353;-63